sensor_id;sensor_type;location;lat;lon;timestamp;P1;durP1;ratioP1;P2;durP2;ratioP2
6251;SDS011;3159;52.414;9.784;2023-06-26T00:01:05;7.10;;;6.17;;
6251;SDS011;3159;52.414;9.784;2023-06-26T00:03:33;8.70;;;6.30;;
6251;SDS011;3159;52.414;9.784;2023-06-26T00:05:59;6.97;;;6.27;;
6251;SDS011;3159;52.414;9.784;2023-06-26T00:08:26;7.47;;;6.70;;
6251;SDS011;3159;52.414;9.784;2023-06-26T00:10:53;7.03;;;6.33;;
6251;SDS011;3159;52.414;9.784;2023-06-26T00:13:20;6.70;;;6.10;;
6251;SDS011;3159;52.414;9.784;2023-06-26T00:15:48;7.57;;;6.50;;
6251;SDS011;3159;52.414;9.784;2023-06-26T00:18:16;7.23;;;6.53;;
6251;SDS011;3159;52.414;9.784;2023-06-26T00:20:43;7.50;;;6.80;;
6251;SDS011;3159;52.414;9.784;2023-06-26T00:23:10;7.73;;;6.33;;
6251;SDS011;3159;52.414;9.784;2023-06-26T00:25:38;6.97;;;6.27;;
6251;SDS011;3159;52.414;9.784;2023-06-26T00:28:05;6.90;;;6.30;;
6251;SDS011;3159;52.414;9.784;2023-06-26T00:30:31;6.90;;;6.30;;
6251;SDS011;3159;52.414;9.784;2023-06-26T00:32:58;7.20;;;6.43;;
6251;SDS011;3159;52.414;9.784;2023-06-26T00:35:26;6.67;;;6.07;;
6251;SDS011;3159;52.414;9.784;2023-06-26T00:37:53;6.90;;;6.20;;
6251;SDS011;3159;52.414;9.784;2023-06-26T00:40:20;8.17;;;6.30;;
6251;SDS011;3159;52.414;9.784;2023-06-26T00:42:47;6.87;;;6.27;;
6251;SDS011;3159;52.414;9.784;2023-06-26T00:45:14;7.70;;;6.70;;
6251;SDS011;3159;52.414;9.784;2023-06-26T00:47:41;7.70;;;6.80;;
6251;SDS011;3159;52.414;9.784;2023-06-26T00:50:08;6.70;;;6.10;;
6251;SDS011;3159;52.414;9.784;2023-06-26T00:52:37;7.60;;;6.90;;
6251;SDS011;3159;52.414;9.784;2023-06-26T00:55:04;8.47;;;6.60;;
6251;SDS011;3159;52.414;9.784;2023-06-26T00:57:32;8.17;;;6.97;;
6251;SDS011;3159;52.414;9.784;2023-06-26T01:00:00;6.97;;;6.27;;
6251;SDS011;3159;52.414;9.784;2023-06-26T01:02:29;7.43;;;6.73;;
6251;SDS011;3159;52.414;9.784;2023-06-26T01:04:58;7.67;;;6.47;;
6251;SDS011;3159;52.414;9.784;2023-06-26T01:07:28;6.77;;;6.17;;
6251;SDS011;3159;52.414;9.784;2023-06-26T01:10:01;7.53;;;6.83;;
6251;SDS011;3159;52.414;9.784;2023-06-26T01:12:29;7.47;;;6.70;;
6251;SDS011;3159;52.414;9.784;2023-06-26T01:14:56;7.10;;;6.40;;
6251;SDS011;3159;52.414;9.784;2023-06-26T01:17:23;6.97;;;6.27;;
6251;SDS011;3159;52.414;9.784;2023-06-26T01:19:50;7.73;;;6.50;;
6251;SDS011;3159;52.414;9.784;2023-06-26T01:22:19;7.23;;;6.57;;
6251;SDS011;3159;52.414;9.784;2023-06-26T01:24:54;6.70;;;6.10;;
6251;SDS011;3159;52.414;9.784;2023-06-26T01:27:38;6.80;;;6.10;;
6251;SDS011;3159;52.414;9.784;2023-06-26T01:30:07;6.40;;;5.80;;
6251;SDS011;3159;52.414;9.784;2023-06-26T01:32:35;7.60;;;6.73;;
6251;SDS011;3159;52.414;9.784;2023-06-26T01:35:04;6.97;;;6.27;;
6251;SDS011;3159;52.414;9.784;2023-06-26T01:37:33;7.23;;;6.53;;
6251;SDS011;3159;52.414;9.784;2023-06-26T01:40:00;7.27;;;6.57;;
6251;SDS011;3159;52.414;9.784;2023-06-26T01:42:30;8.83;;;6.03;;
6251;SDS011;3159;52.414;9.784;2023-06-26T01:44:58;6.47;;;5.87;;
6251;SDS011;3159;52.414;9.784;2023-06-26T01:47:29;7.07;;;6.13;;
6251;SDS011;3159;52.414;9.784;2023-06-26T01:50:01;6.43;;;5.83;;
6251;SDS011;3159;52.414;9.784;2023-06-26T01:52:35;7.47;;;6.77;;
6251;SDS011;3159;52.414;9.784;2023-06-26T01:55:09;7.87;;;6.60;;
6251;SDS011;3159;52.414;9.784;2023-06-26T01:57:41;7.50;;;6.80;;
6251;SDS011;3159;52.414;9.784;2023-06-26T02:00:10;6.63;;;5.93;;
6251;SDS011;3159;52.414;9.784;2023-06-26T02:02:40;5.90;;;5.17;;
6251;SDS011;3159;52.414;9.784;2023-06-26T02:05:07;6.57;;;5.97;;
6251;SDS011;3159;52.414;9.784;2023-06-26T02:07:34;6.33;;;5.80;;
6251;SDS011;3159;52.414;9.784;2023-06-26T02:10:01;7.47;;;5.90;;
6251;SDS011;3159;52.414;9.784;2023-06-26T02:12:28;6.67;;;6.03;;
6251;SDS011;3159;52.414;9.784;2023-06-26T02:14:55;7.27;;;6.57;;
6251;SDS011;3159;52.414;9.784;2023-06-26T02:17:23;6.50;;;5.90;;
6251;SDS011;3159;52.414;9.784;2023-06-26T02:19:50;7.37;;;5.63;;
6251;SDS011;3159;52.414;9.784;2023-06-26T02:22:16;6.10;;;5.53;;
6251;SDS011;3159;52.414;9.784;2023-06-26T02:24:43;7.17;;;5.83;;
6251;SDS011;3159;52.414;9.784;2023-06-26T02:27:10;6.17;;;5.57;;
6251;SDS011;3159;52.414;9.784;2023-06-26T02:29:38;7.17;;;6.20;;
6251;SDS011;3159;52.414;9.784;2023-06-26T02:32:06;6.30;;;5.70;;
6251;SDS011;3159;52.414;9.784;2023-06-26T02:34:35;6.63;;;5.93;;
6251;SDS011;3159;52.414;9.784;2023-06-26T02:37:02;6.50;;;5.80;;
6251;SDS011;3159;52.414;9.784;2023-06-26T02:39:29;7.17;;;5.67;;
6251;SDS011;3159;52.414;9.784;2023-06-26T02:41:55;6.90;;;6.20;;
6251;SDS011;3159;52.414;9.784;2023-06-26T02:44:23;6.80;;;5.73;;
6251;SDS011;3159;52.414;9.784;2023-06-26T02:46:50;6.50;;;5.90;;
6251;SDS011;3159;52.414;9.784;2023-06-26T02:49:17;9.03;;;6.33;;
6251;SDS011;3159;52.414;9.784;2023-06-26T02:51:45;7.47;;;6.60;;
6251;SDS011;3159;52.414;9.784;2023-06-26T02:54:12;6.70;;;5.70;;
6251;SDS011;3159;52.414;9.784;2023-06-26T02:56:39;8.20;;;6.07;;
6251;SDS011;3159;52.414;9.784;2023-06-26T02:59:06;6.03;;;5.43;;
6251;SDS011;3159;52.414;9.784;2023-06-26T03:01:32;6.23;;;5.47;;
6251;SDS011;3159;52.414;9.784;2023-06-26T03:04:00;6.30;;;5.70;;
6251;SDS011;3159;52.414;9.784;2023-06-26T03:06:26;7.13;;;5.23;;
6251;SDS011;3159;52.414;9.784;2023-06-26T03:08:55;5.87;;;5.37;;
6251;SDS011;3159;52.414;9.784;2023-06-26T03:11:22;6.63;;;5.40;;
6251;SDS011;3159;52.414;9.784;2023-06-26T03:13:48;5.83;;;5.33;;
6251;SDS011;3159;52.414;9.784;2023-06-26T03:16:15;6.27;;;5.67;;
6251;SDS011;3159;52.414;9.784;2023-06-26T03:18:42;6.23;;;5.33;;
6251;SDS011;3159;52.414;9.784;2023-06-26T03:21:09;5.90;;;5.30;;
6251;SDS011;3159;52.414;9.784;2023-06-26T03:23:36;7.63;;;5.10;;
6251;SDS011;3159;52.414;9.784;2023-06-26T03:26:04;7.80;;;5.70;;
6251;SDS011;3159;52.414;9.784;2023-06-26T03:28:31;6.00;;;5.30;;
6251;SDS011;3159;52.414;9.784;2023-06-26T03:30:58;7.80;;;4.97;;
6251;SDS011;3159;52.414;9.784;2023-06-26T03:33:24;6.83;;;5.20;;
6251;SDS011;3159;52.414;9.784;2023-06-26T03:35:51;6.57;;;4.93;;
6251;SDS011;3159;52.414;9.784;2023-06-26T03:38:18;6.73;;;5.17;;
6251;SDS011;3159;52.414;9.784;2023-06-26T03:40:45;6.07;;;5.10;;
6251;SDS011;3159;52.414;9.784;2023-06-26T03:43:13;5.97;;;5.17;;
6251;SDS011;3159;52.414;9.784;2023-06-26T03:45:40;7.40;;;5.00;;
6251;SDS011;3159;52.414;9.784;2023-06-26T03:48:07;5.33;;;4.83;;
6251;SDS011;3159;52.414;9.784;2023-06-26T03:50:34;5.63;;;5.00;;
6251;SDS011;3159;52.414;9.784;2023-06-26T03:53:01;5.13;;;4.63;;
6251;SDS011;3159;52.414;9.784;2023-06-26T03:55:28;7.80;;;5.40;;
6251;SDS011;3159;52.414;9.784;2023-06-26T03:57:54;6.03;;;4.67;;
6251;SDS011;3159;52.414;9.784;2023-06-26T04:00:23;5.70;;;5.20;;
6251;SDS011;3159;52.414;9.784;2023-06-26T04:02:49;6.23;;;4.97;;
6251;SDS011;3159;52.414;9.784;2023-06-26T04:05:17;6.03;;;4.70;;
6251;SDS011;3159;52.414;9.784;2023-06-26T04:07:44;5.70;;;4.67;;
6251;SDS011;3159;52.414;9.784;2023-06-26T04:10:11;5.77;;;5.17;;
6251;SDS011;3159;52.414;9.784;2023-06-26T04:12:38;6.40;;;4.70;;
6251;SDS011;3159;52.414;9.784;2023-06-26T04:15:06;7.40;;;5.47;;
6251;SDS011;3159;52.414;9.784;2023-06-26T04:17:34;5.80;;;4.93;;
6251;SDS011;3159;52.414;9.784;2023-06-26T04:20:01;6.33;;;4.47;;
6251;SDS011;3159;52.414;9.784;2023-06-26T04:22:31;5.50;;;5.00;;
6251;SDS011;3159;52.414;9.784;2023-06-26T04:24:58;6.77;;;4.70;;
6251;SDS011;3159;52.414;9.784;2023-06-26T04:27:26;5.03;;;4.53;;
6251;SDS011;3159;52.414;9.784;2023-06-26T04:29:53;6.40;;;4.67;;
6251;SDS011;3159;52.414;9.784;2023-06-26T04:32:20;5.10;;;4.60;;
6251;SDS011;3159;52.414;9.784;2023-06-26T04:34:48;5.73;;;5.10;;
6251;SDS011;3159;52.414;9.784;2023-06-26T04:37:15;6.13;;;4.90;;
6251;SDS011;3159;52.414;9.784;2023-06-26T04:39:42;5.40;;;4.53;;
6251;SDS011;3159;52.414;9.784;2023-06-26T04:42:09;7.03;;;5.07;;
6251;SDS011;3159;52.414;9.784;2023-06-26T04:44:37;5.07;;;4.67;;
6251;SDS011;3159;52.414;9.784;2023-06-26T04:47:06;5.50;;;5.00;;
6251;SDS011;3159;52.414;9.784;2023-06-26T04:49:33;5.40;;;4.30;;
6251;SDS011;3159;52.414;9.784;2023-06-26T04:52:01;5.37;;;4.70;;
6251;SDS011;3159;52.414;9.784;2023-06-26T04:54:28;6.60;;;4.70;;
6251;SDS011;3159;52.414;9.784;2023-06-26T04:56:55;5.70;;;4.90;;
6251;SDS011;3159;52.414;9.784;2023-06-26T04:59:22;5.17;;;4.67;;
6251;SDS011;3159;52.414;9.784;2023-06-26T05:01:49;5.10;;;4.60;;
6251;SDS011;3159;52.414;9.784;2023-06-26T05:04:16;6.70;;;5.30;;
6251;SDS011;3159;52.414;9.784;2023-06-26T05:06:43;5.17;;;4.63;;
6251;SDS011;3159;52.414;9.784;2023-06-26T05:09:11;8.17;;;5.13;;
6251;SDS011;3159;52.414;9.784;2023-06-26T05:11:38;6.97;;;4.90;;
6251;SDS011;3159;52.414;9.784;2023-06-26T05:14:05;5.30;;;4.80;;
6251;SDS011;3159;52.414;9.784;2023-06-26T05:16:34;5.03;;;4.53;;
6251;SDS011;3159;52.414;9.784;2023-06-26T05:19:01;5.37;;;4.87;;
6251;SDS011;3159;52.414;9.784;2023-06-26T05:21:28;7.23;;;4.90;;
6251;SDS011;3159;52.414;9.784;2023-06-26T05:23:56;5.67;;;4.47;;
6251;SDS011;3159;52.414;9.784;2023-06-26T05:26:25;6.93;;;4.87;;
6251;SDS011;3159;52.414;9.784;2023-06-26T05:28:53;7.20;;;4.77;;
6251;SDS011;3159;52.414;9.784;2023-06-26T05:31:20;6.13;;;5.20;;
6251;SDS011;3159;52.414;9.784;2023-06-26T05:33:48;6.53;;;4.77;;
6251;SDS011;3159;52.414;9.784;2023-06-26T05:36:15;5.17;;;4.67;;
6251;SDS011;3159;52.414;9.784;2023-06-26T05:38:44;5.50;;;5.00;;
6251;SDS011;3159;52.414;9.784;2023-06-26T05:41:11;6.47;;;5.03;;
6251;SDS011;3159;52.414;9.784;2023-06-26T05:43:40;5.40;;;4.90;;
6251;SDS011;3159;52.414;9.784;2023-06-26T05:46:07;6.97;;;4.83;;
6251;SDS011;3159;52.414;9.784;2023-06-26T05:48:33;9.87;;;4.87;;
6251;SDS011;3159;52.414;9.784;2023-06-26T05:51:00;8.50;;;5.57;;
6251;SDS011;3159;52.414;9.784;2023-06-26T05:53:29;5.97;;;4.63;;
6251;SDS011;3159;52.414;9.784;2023-06-26T05:55:56;5.10;;;4.60;;
6251;SDS011;3159;52.414;9.784;2023-06-26T05:58:24;5.17;;;4.73;;
6251;SDS011;3159;52.414;9.784;2023-06-26T06:00:54;5.90;;;5.30;;
6251;SDS011;3159;52.414;9.784;2023-06-26T06:03:21;6.13;;;5.03;;
6251;SDS011;3159;52.414;9.784;2023-06-26T06:05:49;5.80;;;5.20;;
6251;SDS011;3159;52.414;9.784;2023-06-26T06:08:15;6.40;;;5.23;;
6251;SDS011;3159;52.414;9.784;2023-06-26T06:10:42;5.23;;;4.70;;
6251;SDS011;3159;52.414;9.784;2023-06-26T06:13:09;5.23;;;4.73;;
6251;SDS011;3159;52.414;9.784;2023-06-26T06:15:36;7.60;;;5.10;;
6251;SDS011;3159;52.414;9.784;2023-06-26T06:18:04;6.40;;;5.60;;
6251;SDS011;3159;52.414;9.784;2023-06-26T06:20:31;6.63;;;5.17;;
6251;SDS011;3159;52.414;9.784;2023-06-26T06:22:58;6.40;;;5.20;;
6251;SDS011;3159;52.414;9.784;2023-06-26T06:25:25;6.00;;;4.80;;
6251;SDS011;3159;52.414;9.784;2023-06-26T06:27:51;5.50;;;5.00;;
6251;SDS011;3159;52.414;9.784;2023-06-26T06:30:18;7.67;;;5.00;;
6251;SDS011;3159;52.414;9.784;2023-06-26T06:32:45;5.63;;;5.03;;
6251;SDS011;3159;52.414;9.784;2023-06-26T06:35:16;5.83;;;5.10;;
6251;SDS011;3159;52.414;9.784;2023-06-26T06:37:43;5.97;;;4.90;;
6251;SDS011;3159;52.414;9.784;2023-06-26T06:40:10;5.80;;;5.20;;
6251;SDS011;3159;52.414;9.784;2023-06-26T06:42:37;6.00;;;5.30;;
6251;SDS011;3159;52.414;9.784;2023-06-26T06:45:05;6.83;;;5.60;;
6251;SDS011;3159;52.414;9.784;2023-06-26T06:47:32;13.43;;;5.60;;
6251;SDS011;3159;52.414;9.784;2023-06-26T06:49:59;7.13;;;5.60;;
6251;SDS011;3159;52.414;9.784;2023-06-26T06:52:34;7.23;;;5.50;;
6251;SDS011;3159;52.414;9.784;2023-06-26T06:55:02;5.33;;;4.83;;
6251;SDS011;3159;52.414;9.784;2023-06-26T06:57:30;5.70;;;5.10;;
6251;SDS011;3159;52.414;9.784;2023-06-26T07:00:00;5.87;;;5.10;;
6251;SDS011;3159;52.414;9.784;2023-06-26T07:02:29;5.60;;;5.00;;
6251;SDS011;3159;52.414;9.784;2023-06-26T07:04:56;5.67;;;5.17;;
6251;SDS011;3159;52.414;9.784;2023-06-26T07:07:22;7.53;;;5.63;;
6251;SDS011;3159;52.414;9.784;2023-06-26T07:09:51;8.30;;;5.70;;
6251;SDS011;3159;52.414;9.784;2023-06-26T07:12:17;5.93;;;5.27;;
6251;SDS011;3159;52.414;9.784;2023-06-26T07:14:44;5.53;;;5.03;;
6251;SDS011;3159;52.414;9.784;2023-06-26T07:17:11;6.20;;;5.60;;
6251;SDS011;3159;52.414;9.784;2023-06-26T07:19:38;7.40;;;5.67;;
6251;SDS011;3159;52.414;9.784;2023-06-26T07:22:05;10.27;;;5.87;;
6251;SDS011;3159;52.414;9.784;2023-06-26T07:24:31;7.07;;;5.53;;
6251;SDS011;3159;52.414;9.784;2023-06-26T07:27:00;6.63;;;4.97;;
6251;SDS011;3159;52.414;9.784;2023-06-26T07:29:27;7.03;;;5.07;;
6251;SDS011;3159;52.414;9.784;2023-06-26T07:31:53;6.27;;;5.67;;
6251;SDS011;3159;52.414;9.784;2023-06-26T07:34:20;6.27;;;5.60;;
6251;SDS011;3159;52.414;9.784;2023-06-26T07:36:47;5.70;;;5.10;;
6251;SDS011;3159;52.414;9.784;2023-06-26T07:39:14;6.30;;;5.70;;
6251;SDS011;3159;52.414;9.784;2023-06-26T07:41:41;6.33;;;5.73;;
6251;SDS011;3159;52.414;9.784;2023-06-26T07:44:09;6.43;;;5.70;;
6251;SDS011;3159;52.414;9.784;2023-06-26T07:46:36;8.80;;;5.53;;
6251;SDS011;3159;52.414;9.784;2023-06-26T07:49:03;6.53;;;5.87;;
6251;SDS011;3159;52.414;9.784;2023-06-26T07:51:29;7.17;;;6.47;;
6251;SDS011;3159;52.414;9.784;2023-06-26T07:53:56;7.57;;;5.93;;
6251;SDS011;3159;52.414;9.784;2023-06-26T07:56:23;8.67;;;6.07;;
6251;SDS011;3159;52.414;9.784;2023-06-26T07:58:50;7.30;;;5.80;;
6251;SDS011;3159;52.414;9.784;2023-06-26T08:01:19;7.17;;;5.83;;
6251;SDS011;3159;52.414;9.784;2023-06-26T08:03:46;6.30;;;5.70;;
6251;SDS011;3159;52.414;9.784;2023-06-26T08:06:12;8.20;;;5.90;;
6251;SDS011;3159;52.414;9.784;2023-06-26T08:08:39;8.30;;;6.17;;
6251;SDS011;3159;52.414;9.784;2023-06-26T08:11:06;6.27;;;5.67;;
6251;SDS011;3159;52.414;9.784;2023-06-26T08:13:33;6.43;;;5.83;;
6251;SDS011;3159;52.414;9.784;2023-06-26T08:16:00;7.03;;;5.90;;
6251;SDS011;3159;52.414;9.784;2023-06-26T08:18:28;6.50;;;5.90;;
6251;SDS011;3159;52.414;9.784;2023-06-26T08:20:55;6.47;;;5.87;;
6251;SDS011;3159;52.414;9.784;2023-06-26T08:23:22;7.97;;;6.07;;
6251;SDS011;3159;52.414;9.784;2023-06-26T08:25:49;7.33;;;6.20;;
6251;SDS011;3159;52.414;9.784;2023-06-26T08:28:16;7.40;;;6.20;;
6251;SDS011;3159;52.414;9.784;2023-06-26T08:30:43;6.90;;;6.13;;
6251;SDS011;3159;52.414;9.784;2023-06-26T08:33:10;8.93;;;6.30;;
6251;SDS011;3159;52.414;9.784;2023-06-26T08:35:38;8.40;;;6.10;;
6251;SDS011;3159;52.414;9.784;2023-06-26T08:38:05;7.37;;;5.80;;
6251;SDS011;3159;52.414;9.784;2023-06-26T08:40:34;6.20;;;5.60;;
6251;SDS011;3159;52.414;9.784;2023-06-26T08:43:01;8.37;;;6.07;;
6251;SDS011;3159;52.414;9.784;2023-06-26T08:45:29;6.97;;;6.00;;
6251;SDS011;3159;52.414;9.784;2023-06-26T08:47:56;6.13;;;5.50;;
6251;SDS011;3159;52.414;9.784;2023-06-26T08:50:30;7.47;;;5.70;;
6251;SDS011;3159;52.414;9.784;2023-06-26T08:53:02;6.73;;;6.03;;
6251;SDS011;3159;52.414;9.784;2023-06-26T08:55:33;6.13;;;5.63;;
6251;SDS011;3159;52.414;9.784;2023-06-26T08:58:04;7.03;;;5.80;;
6251;SDS011;3159;52.414;9.784;2023-06-26T09:00:31;7.50;;;5.80;;
6251;SDS011;3159;52.414;9.784;2023-06-26T09:02:58;7.97;;;6.80;;
6251;SDS011;3159;52.414;9.784;2023-06-26T09:05:25;7.97;;;6.33;;
6251;SDS011;3159;52.414;9.784;2023-06-26T09:07:53;7.20;;;6.47;;
6251;SDS011;3159;52.414;9.784;2023-06-26T09:10:22;7.70;;;6.23;;
6251;SDS011;3159;52.414;9.784;2023-06-26T09:12:48;7.10;;;6.40;;
6251;SDS011;3159;52.414;9.784;2023-06-26T09:15:19;10.23;;;7.50;;
6251;SDS011;3159;52.414;9.784;2023-06-26T09:17:47;14.13;;;7.50;;
6251;SDS011;3159;52.414;9.784;2023-06-26T09:20:14;9.10;;;6.97;;
6251;SDS011;3159;52.414;9.784;2023-06-26T09:22:43;11.00;;;7.83;;
6251;SDS011;3159;52.414;9.784;2023-06-26T09:25:13;9.53;;;7.90;;
6251;SDS011;3159;52.414;9.784;2023-06-26T09:27:42;10.27;;;7.43;;
6251;SDS011;3159;52.414;9.784;2023-06-26T09:30:09;14.50;;;7.57;;
6251;SDS011;3159;52.414;9.784;2023-06-26T09:32:37;8.83;;;7.93;;
6251;SDS011;3159;52.414;9.784;2023-06-26T09:35:04;10.17;;;8.17;;
6251;SDS011;3159;52.414;9.784;2023-06-26T09:37:31;9.07;;;7.43;;
6251;SDS011;3159;52.414;9.784;2023-06-26T09:40:00;9.53;;;8.53;;
6251;SDS011;3159;52.414;9.784;2023-06-26T09:42:28;9.53;;;8.53;;
6251;SDS011;3159;52.414;9.784;2023-06-26T09:44:57;9.60;;;8.53;;
6251;SDS011;3159;52.414;9.784;2023-06-26T09:47:24;12.37;;;8.80;;
6251;SDS011;3159;52.414;9.784;2023-06-26T09:49:51;9.53;;;8.43;;
6251;SDS011;3159;52.414;9.784;2023-06-26T09:52:20;9.53;;;8.63;;
6251;SDS011;3159;52.414;9.784;2023-06-26T09:54:46;12.37;;;8.23;;
6251;SDS011;3159;52.414;9.784;2023-06-26T09:57:15;9.43;;;8.43;;
6251;SDS011;3159;52.414;9.784;2023-06-26T09:59:44;11.10;;;8.20;;
6251;SDS011;3159;52.414;9.784;2023-06-26T10:02:12;13.17;;;7.87;;
6251;SDS011;3159;52.414;9.784;2023-06-26T10:04:39;9.27;;;8.30;;
6251;SDS011;3159;52.414;9.784;2023-06-26T10:07:08;8.17;;;7.37;;
6251;SDS011;3159;52.414;9.784;2023-06-26T10:09:40;8.57;;;7.77;;
6251;SDS011;3159;52.414;9.784;2023-06-26T10:12:10;9.47;;;8.53;;
6251;SDS011;3159;52.414;9.784;2023-06-26T10:14:41;15.53;;;9.37;;
6251;SDS011;3159;52.414;9.784;2023-06-26T10:17:09;10.57;;;9.37;;
6251;SDS011;3159;52.414;9.784;2023-06-26T10:19:41;10.30;;;9.30;;
6251;SDS011;3159;52.414;9.784;2023-06-26T10:22:10;11.70;;;8.97;;
6251;SDS011;3159;52.414;9.784;2023-06-26T10:24:40;12.97;;;8.77;;
6251;SDS011;3159;52.414;9.784;2023-06-26T10:27:10;14.10;;;8.40;;
6251;SDS011;3159;52.414;9.784;2023-06-26T10:29:42;13.20;;;7.57;;
6251;SDS011;3159;52.414;9.784;2023-06-26T10:32:13;11.07;;;6.80;;
6251;SDS011;3159;52.414;9.784;2023-06-26T10:34:42;8.87;;;6.83;;
6251;SDS011;3159;52.414;9.784;2023-06-26T10:37:09;7.87;;;6.40;;
6251;SDS011;3159;52.414;9.784;2023-06-26T10:39:45;13.37;;;6.87;;
6251;SDS011;3159;52.414;9.784;2023-06-26T10:42:14;11.43;;;7.73;;
6251;SDS011;3159;52.414;9.784;2023-06-26T10:44:42;12.77;;;7.50;;
6251;SDS011;3159;52.414;9.784;2023-06-26T10:47:10;9.90;;;7.20;;
6251;SDS011;3159;52.414;9.784;2023-06-26T10:49:37;10.03;;;8.53;;
6251;SDS011;3159;52.414;9.784;2023-06-26T10:52:08;11.87;;;8.87;;
6251;SDS011;3159;52.414;9.784;2023-06-26T10:54:37;10.27;;;8.77;;
6251;SDS011;3159;52.414;9.784;2023-06-26T10:57:04;14.63;;;9.80;;
6251;SDS011;3159;52.414;9.784;2023-06-26T10:59:34;12.73;;;8.90;;
6251;SDS011;3159;52.414;9.784;2023-06-26T11:02:05;12.03;;;9.57;;
6251;SDS011;3159;52.414;9.784;2023-06-26T11:04:38;12.37;;;8.77;;
6251;SDS011;3159;52.414;9.784;2023-06-26T11:07:18;13.40;;;9.93;;
6251;SDS011;3159;52.414;9.784;2023-06-26T11:09:55;12.97;;;9.40;;
6251;SDS011;3159;52.414;9.784;2023-06-26T11:12:33;14.90;;;8.97;;
6251;SDS011;3159;52.414;9.784;2023-06-26T11:15:01;13.10;;;10.77;;
6251;SDS011;3159;52.414;9.784;2023-06-26T11:17:29;12.30;;;10.50;;
6251;SDS011;3159;52.414;9.784;2023-06-26T11:19:55;14.40;;;9.67;;
6251;SDS011;3159;52.414;9.784;2023-06-26T11:22:24;13.63;;;8.90;;
6251;SDS011;3159;52.414;9.784;2023-06-26T11:24:53;11.10;;;9.90;;
6251;SDS011;3159;52.414;9.784;2023-06-26T11:27:30;12.53;;;8.83;;
6251;SDS011;3159;52.414;9.784;2023-06-26T11:29:57;11.67;;;8.90;;
6251;SDS011;3159;52.414;9.784;2023-06-26T11:32:25;10.97;;;8.57;;
6251;SDS011;3159;52.414;9.784;2023-06-26T11:34:53;11.87;;;8.50;;
6251;SDS011;3159;52.414;9.784;2023-06-26T11:37:20;12.33;;;9.33;;
6251;SDS011;3159;52.414;9.784;2023-06-26T11:39:49;13.47;;;8.47;;
6251;SDS011;3159;52.414;9.784;2023-06-26T11:42:16;10.43;;;7.93;;
6251;SDS011;3159;52.414;9.784;2023-06-26T11:44:43;11.37;;;8.73;;
6251;SDS011;3159;52.414;9.784;2023-06-26T11:47:14;10.60;;;7.87;;
6251;SDS011;3159;52.414;9.784;2023-06-26T11:49:44;9.13;;;7.67;;
6251;SDS011;3159;52.414;9.784;2023-06-26T11:52:11;10.33;;;7.13;;
6251;SDS011;3159;52.414;9.784;2023-06-26T11:54:39;10.50;;;7.50;;
6251;SDS011;3159;52.414;9.784;2023-06-26T11:57:08;8.87;;;6.63;;
6251;SDS011;3159;52.414;9.784;2023-06-26T11:59:40;10.80;;;6.60;;
6251;SDS011;3159;52.414;9.784;2023-06-26T12:02:08;12.10;;;6.67;;
6251;SDS011;3159;52.414;9.784;2023-06-26T12:04:37;8.10;;;5.50;;
6251;SDS011;3159;52.414;9.784;2023-06-26T12:07:06;7.57;;;5.80;;
6251;SDS011;3159;52.414;9.784;2023-06-26T12:09:37;8.20;;;5.07;;
6251;SDS011;3159;52.414;9.784;2023-06-26T12:12:05;8.73;;;4.43;;
6251;SDS011;3159;52.414;9.784;2023-06-26T12:14:35;6.37;;;4.07;;
6251;SDS011;3159;52.414;9.784;2023-06-26T12:17:03;4.80;;;3.90;;
6251;SDS011;3159;52.414;9.784;2023-06-26T12:19:31;4.20;;;3.80;;
6251;SDS011;3159;52.414;9.784;2023-06-26T12:21:58;7.00;;;4.03;;
6251;SDS011;3159;52.414;9.784;2023-06-26T12:24:25;6.20;;;3.40;;
6251;SDS011;3159;52.414;9.784;2023-06-26T12:26:53;6.27;;;4.00;;
6251;SDS011;3159;52.414;9.784;2023-06-26T12:29:29;6.27;;;4.10;;
6251;SDS011;3159;52.414;9.784;2023-06-26T12:31:59;6.00;;;4.20;;
6251;SDS011;3159;52.414;9.784;2023-06-26T12:34:27;6.17;;;4.13;;
6251;SDS011;3159;52.414;9.784;2023-06-26T12:36:59;5.93;;;3.87;;
6251;SDS011;3159;52.414;9.784;2023-06-26T12:39:27;7.37;;;4.50;;
6251;SDS011;3159;52.414;9.784;2023-06-26T12:41:54;6.93;;;4.40;;
6251;SDS011;3159;52.414;9.784;2023-06-26T12:44:25;6.77;;;3.80;;
6251;SDS011;3159;52.414;9.784;2023-06-26T12:46:53;6.77;;;4.20;;
6251;SDS011;3159;52.414;9.784;2023-06-26T12:49:33;5.97;;;4.07;;
6251;SDS011;3159;52.414;9.784;2023-06-26T12:52:02;5.80;;;4.00;;
6251;SDS011;3159;52.414;9.784;2023-06-26T12:54:30;5.93;;;4.17;;
6251;SDS011;3159;52.414;9.784;2023-06-26T12:56:57;6.27;;;3.80;;
6251;SDS011;3159;52.414;9.784;2023-06-26T12:59:25;8.87;;;4.20;;
6251;SDS011;3159;52.414;9.784;2023-06-26T13:01:52;7.23;;;3.67;;
6251;SDS011;3159;52.414;9.784;2023-06-26T13:04:19;5.37;;;3.43;;
6251;SDS011;3159;52.414;9.784;2023-06-26T13:06:46;5.30;;;3.30;;
6251;SDS011;3159;52.414;9.784;2023-06-26T13:09:13;5.27;;;3.17;;
6251;SDS011;3159;52.414;9.784;2023-06-26T13:11:40;3.90;;;3.00;;
6251;SDS011;3159;52.414;9.784;2023-06-26T13:14:07;5.83;;;3.50;;
6251;SDS011;3159;52.414;9.784;2023-06-26T13:16:35;6.50;;;3.17;;
6251;SDS011;3159;52.414;9.784;2023-06-26T13:19:02;4.73;;;3.27;;
6251;SDS011;3159;52.414;9.784;2023-06-26T13:21:29;4.07;;;2.70;;
6251;SDS011;3159;52.414;9.784;2023-06-26T13:23:56;5.33;;;2.80;;
6251;SDS011;3159;52.414;9.784;2023-06-26T13:26:24;4.60;;;2.87;;
6251;SDS011;3159;52.414;9.784;2023-06-26T13:28:51;2.80;;;2.47;;
6251;SDS011;3159;52.414;9.784;2023-06-26T13:31:18;4.33;;;2.27;;
6251;SDS011;3159;52.414;9.784;2023-06-26T13:33:47;5.73;;;2.47;;
6251;SDS011;3159;52.414;9.784;2023-06-26T13:36:15;4.07;;;2.23;;
6251;SDS011;3159;52.414;9.784;2023-06-26T13:38:41;3.17;;;2.20;;
6251;SDS011;3159;52.414;9.784;2023-06-26T13:41:08;2.57;;;1.97;;
6251;SDS011;3159;52.414;9.784;2023-06-26T13:43:35;4.67;;;2.40;;
6251;SDS011;3159;52.414;9.784;2023-06-26T13:46:02;6.53;;;2.30;;
6251;SDS011;3159;52.414;9.784;2023-06-26T13:48:29;3.77;;;2.10;;
6251;SDS011;3159;52.414;9.784;2023-06-26T13:50:58;3.10;;;2.37;;
6251;SDS011;3159;52.414;9.784;2023-06-26T13:53:25;4.90;;;2.50;;
6251;SDS011;3159;52.414;9.784;2023-06-26T13:55:52;5.87;;;2.30;;
6251;SDS011;3159;52.414;9.784;2023-06-26T13:58:18;7.63;;;2.00;;
6251;SDS011;3159;52.414;9.784;2023-06-26T14:00:49;4.20;;;2.20;;
6251;SDS011;3159;52.414;9.784;2023-06-26T14:03:16;3.30;;;2.00;;
6251;SDS011;3159;52.414;9.784;2023-06-26T14:05:43;5.87;;;2.47;;
6251;SDS011;3159;52.414;9.784;2023-06-26T14:08:12;5.33;;;2.50;;
6251;SDS011;3159;52.414;9.784;2023-06-26T14:10:39;2.90;;;1.73;;
6251;SDS011;3159;52.414;9.784;2023-06-26T14:13:06;3.27;;;2.00;;
6251;SDS011;3159;52.414;9.784;2023-06-26T14:15:34;6.17;;;2.50;;
6251;SDS011;3159;52.414;9.784;2023-06-26T14:18:00;4.47;;;2.57;;
6251;SDS011;3159;52.414;9.784;2023-06-26T14:20:29;3.97;;;2.30;;
6251;SDS011;3159;52.414;9.784;2023-06-26T14:22:57;3.27;;;2.30;;
6251;SDS011;3159;52.414;9.784;2023-06-26T14:25:26;4.40;;;2.10;;
6251;SDS011;3159;52.414;9.784;2023-06-26T14:27:53;2.77;;;2.00;;
6251;SDS011;3159;52.414;9.784;2023-06-26T14:30:21;2.67;;;1.97;;
6251;SDS011;3159;52.414;9.784;2023-06-26T14:32:48;4.57;;;2.10;;
6251;SDS011;3159;52.414;9.784;2023-06-26T14:35:15;7.20;;;2.10;;
6251;SDS011;3159;52.414;9.784;2023-06-26T14:37:42;3.97;;;2.17;;
6251;SDS011;3159;52.414;9.784;2023-06-26T14:40:09;2.53;;;1.70;;
6251;SDS011;3159;52.414;9.784;2023-06-26T14:42:38;3.73;;;1.90;;
6251;SDS011;3159;52.414;9.784;2023-06-26T14:45:05;4.37;;;2.10;;
6251;SDS011;3159;52.414;9.784;2023-06-26T14:47:33;4.80;;;2.07;;
6251;SDS011;3159;52.414;9.784;2023-06-26T14:50:00;3.13;;;1.77;;
6251;SDS011;3159;52.414;9.784;2023-06-26T14:52:27;3.83;;;1.80;;
6251;SDS011;3159;52.414;9.784;2023-06-26T14:54:54;3.73;;;1.67;;
6251;SDS011;3159;52.414;9.784;2023-06-26T14:57:20;5.13;;;1.87;;
6251;SDS011;3159;52.414;9.784;2023-06-26T14:59:49;3.50;;;1.90;;
6251;SDS011;3159;52.414;9.784;2023-06-26T15:02:16;4.57;;;2.07;;
6251;SDS011;3159;52.414;9.784;2023-06-26T15:04:42;4.33;;;1.80;;
6251;SDS011;3159;52.414;9.784;2023-06-26T15:07:11;4.33;;;1.60;;
6251;SDS011;3159;52.414;9.784;2023-06-26T15:09:37;4.10;;;1.93;;
6251;SDS011;3159;52.414;9.784;2023-06-26T15:12:05;5.03;;;1.37;;
6251;SDS011;3159;52.414;9.784;2023-06-26T15:14:32;3.33;;;2.00;;
6251;SDS011;3159;52.414;9.784;2023-06-26T15:17:00;6.60;;;2.07;;